Time;durP1;ratioP1;P1;durP2;ratioP2;P2;SDS_P1;SDS_P2;PMS_P1;PMS_P2;Temp;Humidity;BMP_temperature;BMP_pressure;BME280_temperature;BME280_humidity;BME280_pressure;Samples;Min_cycle;Max_cycle;Signal;HPM_P1;HPM_P2
2022/11/25 00:02:18;;;;;;;5.67;2.43;;;;;;;;;;5073289;28;20272;-88
2022/11/25 00:04:44;;;;;;;11.75;3.67;;;;;;;;;;5073699;28;20418;-88
2022/11/25 00:07:10;;;;;;;13.57;4.03;;;;;;;;;;5073265;28;20712;-88
2022/11/25 00:09:36;;;;;;;7.53;2.33;;;;;;;;;;5073328;28;20418;-89
2022/11/25 00:12:02;;;;;;;12.07;2.57;;;;;;;;;;5056821;28;20902;-89
2022/11/25 00:14:28;;;;;;;8.80;2.30;;;;;;;;;;5056575;28;20421;-89
2022/11/25 00:16:54;;;;;;;8.13;2.20;;;;;;;;;;5073648;28;20399;-89
2022/11/25 00:19:20;;;;;;;10.50;2.37;;;;;;;;;;5072578;28;20478;-89
2022/11/25 00:21:46;;;;;;;8.93;3.13;;;;;;;;;;5074525;28;20770;-89
2022/11/25 00:24:13;;;;;;;12.47;2.50;;;;;;;;;;5074084;28;20415;-89
2022/11/25 00:26:40;;;;;;;10.57;2.92;;;;;;;;;;5074595;28;20743;-89
2022/11/25 00:29:07;;;;;;;10.60;2.63;;;;;;;;;;5072847;28;20510;-88
2022/11/25 00:31:34;;;;;;;17.23;3.10;;;;;;;;;;5072683;28;20242;-89
2022/11/25 00:34:00;;;;;;;10.13;2.72;;;;;;;;;;5074161;28;20284;-89
2022/11/25 00:36:26;;;;;;;9.63;2.70;;;;;;;;;;5073873;28;20211;-88
2022/11/25 00:38:56;;;;;;;5.65;1.98;;;;;;;;;;5072774;28;20228;-88
2022/11/25 00:46:56;;;;;;;9.50;2.55;;;;;;;;;;5074208;28;20171;-88
2022/11/25 00:49:22;;;;;;;8.65;2.80;;;;;;;;;;5073559;28;20222;-88
2022/11/25 00:51:48;;;;;;;12.93;3.00;;;;;;;;;;5074143;28;20216;-88
2022/11/25 00:54:14;;;;;;;6.70;2.80;;;;;;;;;;5055582;28;20407;-88
2022/11/25 00:56:40;;;;;;;7.72;2.78;;;;;;;;;;5072565;28;20405;-88
2022/11/25 00:59:06;;;;;;;10.77;2.87;;;;;;;;;;5073551;28;20675;-86
2022/11/25 01:01:33;;;;;;;7.45;2.85;;;;;;;;;;5073351;28;20395;-88
2022/11/25 01:03:59;;;;;;;8.63;2.45;;;;;;;;;;5072023;28;20283;-88
2022/11/25 01:06:25;;;;;;;6.38;2.15;;;;;;;;;;5073613;28;20184;-88
2022/11/25 01:08:51;;;;;;;10.20;2.95;;;;;;;;;;5055570;28;20577;-88
2022/11/25 01:11:18;;;;;;;5.97;2.70;;;;;;;;;;5071789;28;20192;-88
2022/11/25 01:13:45;;;;;;;14.25;2.95;;;;;;;;;;5072097;28;20188;-88
2022/11/25 01:16:11;;;;;;;15.05;2.83;;;;;;;;;;5072105;28;20183;-88
2022/11/25 01:18:37;;;;;;;14.10;3.45;;;;;;;;;;5072080;28;20610;-88
2022/11/25 01:21:08;;;;;;;9.30;3.00;;;;;;;;;;5072104;28;20184;-88
2022/11/25 01:23:34;;;;;;;11.38;2.92;;;;;;;;;;5073086;28;20461;-88
2022/11/25 01:26:01;;;;;;;10.80;2.45;;;;;;;;;;5073466;28;20195;-88
2022/11/25 01:28:27;;;;;;;9.43;2.47;;;;;;;;;;5071211;28;20663;-87
2022/11/25 01:31:07;;;;;;;8.97;2.43;;;;;;;;;;5073402;28;20267;-87
2022/11/25 01:33:33;;;;;;;11.38;3.17;;;;;;;;;;5073180;28;20402;-88
2022/11/25 01:36:03;;;;;;;9.80;3.05;;;;;;;;;;5073398;28;20176;-88
2022/11/25 01:38:30;;;;;;;11.77;2.60;;;;;;;;;;5072935;28;20200;-88
2022/11/25 01:40:56;;;;;;;4.15;2.00;;;;;;;;;;5073336;28;20180;-88
2022/11/25 01:43:22;;;;;;;8.52;3.00;;;;;;;;;;5073137;28;20183;-88
2022/11/25 01:45:48;;;;;;;11.32;2.90;;;;;;;;;;5073592;28;20226;-88
2022/11/25 01:48:18;;;;;;;15.25;3.25;;;;;;;;;;5071806;28;20191;-86
2022/11/25 01:50:44;;;;;;;13.63;3.05;;;;;;;;;;5071867;28;20181;-88
2022/11/25 01:53:11;;;;;;;10.20;3.00;;;;;;;;;;5073099;28;20176;-88
2022/11/25 01:55:40;;;;;;;6.13;2.60;;;;;;;;;;5072586;28;20181;-88
2022/11/25 01:58:11;;;;;;;15.75;2.70;;;;;;;;;;5072651;28;20543;-87
2022/11/25 02:00:37;;;;;;;7.72;3.17;;;;;;;;;;5073037;28;20231;-88
2022/11/25 02:03:04;;;;;;;10.05;2.40;;;;;;;;;;5055519;28;20180;-88
2022/11/25 02:05:42;;;;;;;12.40;2.65;;;;;;;;;;5072628;28;20248;-84
2022/11/25 02:08:09;;;;;;;6.80;2.03;;;;;;;;;;5071652;28;20632;-88
2022/11/25 02:10:35;;;;;;;11.00;3.40;;;;;;;;;;5071475;28;20207;-88
2022/11/25 02:13:01;;;;;;;14.05;3.25;;;;;;;;;;5073040;28;20268;-88
2022/11/25 02:15:29;;;;;;;11.40;3.58;;;;;;;;;;5075520;28;20501;-88
2022/11/25 02:17:55;;;;;;;11.13;2.95;;;;;;;;;;5072969;28;20202;-85
2022/11/25 02:20:22;;;;;;;9.88;3.00;;;;;;;;;;5054603;28;20199;-87
2022/11/25 02:23:06;;;;;;;8.93;3.03;;;;;;;;;;5072899;28;20177;-87
2022/11/25 02:25:34;;;;;;;7.53;2.70;;;;;;;;;;5072624;28;20246;-87
2022/11/25 02:28:05;;;;;;;10.23;2.75;;;;;;;;;;5072648;28;20181;-88
2022/11/25 02:30:32;;;;;;;13.32;3.10;;;;;;;;;;5072687;28;20196;-87
2022/11/25 02:32:59;;;;;;;11.52;2.30;;;;;;;;;;5071639;28;20168;-87
2022/11/25 02:35:35;;;;;;;12.43;2.60;;;;;;;;;;5071936;28;20173;-87
2022/11/25 02:38:09;;;;;;;10.00;2.60;;;;;;;;;;5077506;28;20287;-87
2022/11/25 02:40:37;;;;;;;17.92;3.30;;;;;;;;;;5073509;28;20248;-87
2022/11/25 02:43:03;;;;;;;10.45;3.80;;;;;;;;;;5075379;28;20508;-88
2022/11/25 02:45:45;;;;;;;5.50;2.30;;;;;;;;;;5075498;28;20187;-86
2022/11/25 02:48:11;;;;;;;11.48;3.53;;;;;;;;;;5076525;28;20859;-87
2022/11/25 02:50:37;;;;;;;10.93;3.00;;;;;;;;;;5075260;28;20208;-85
2022/11/25 02:53:03;;;;;;;11.43;3.22;;;;;;;;;;5075056;28;20418;-86
2022/11/25 02:55:29;;;;;;;10.95;3.00;;;;;;;;;;5058565;28;20185;-87
2022/11/25 02:57:55;;;;;;;6.70;2.58;;;;;;;;;;5076891;28;20235;-87
2022/11/25 03:00:21;;;;;;;13.27;2.45;;;;;;;;;;5057750;28;20236;-86
2022/11/25 03:02:48;;;;;;;9.73;2.72;;;;;;;;;;5058705;28;20196;-87
2022/11/25 03:05:14;;;;;;;7.43;2.72;;;;;;;;;;5076158;28;20207;-85
2022/11/25 03:07:40;;;;;;;10.65;3.33;;;;;;;;;;5074734;28;20188;-87
2022/11/25 03:10:06;;;;;;;7.27;2.27;;;;;;;;;;5075041;28;20191;-87
2022/11/25 03:12:32;;;;;;;10.70;2.85;;;;;;;;;;5074202;28;20870;-87
2022/11/25 03:14:58;;;;;;;8.73;2.38;;;;;;;;;;5074437;28;20181;-86
2022/11/25 03:17:24;;;;;;;10.07;2.80;;;;;;;;;;5074996;28;20254;-87
2022/11/25 03:19:50;;;;;;;9.20;2.33;;;;;;;;;;5074251;28;20419;-87
2022/11/25 03:22:16;;;;;;;6.97;3.08;;;;;;;;;;5075560;28;20503;-86
2022/11/25 03:24:42;;;;;;;6.75;2.15;;;;;;;;;;5074484;28;20173;-87
2022/11/25 03:27:08;;;;;;;8.40;2.80;;;;;;;;;;5075904;28;20188;-86
2022/11/25 03:29:34;;;;;;;8.63;3.00;;;;;;;;;;5075280;28;20485;-86
2022/11/25 03:32:00;;;;;;;8.60;2.87;;;;;;;;;;5074589;28;20215;-86
2022/11/25 03:34:26;;;;;;;9.33;2.67;;;;;;;;;;5077083;28;20460;-86
2022/11/25 03:36:51;;;;;;;9.43;2.50;;;;;;;;;;5057959;28;20925;-86
2022/11/25 03:39:17;;;;;;;12.00;2.87;;;;;;;;;;5074411;28;20477;-86
2022/11/25 03:41:43;;;;;;;9.07;3.60;;;;;;;;;;5057555;28;20507;-86
2022/11/25 03:44:09;;;;;;;9.00;2.70;;;;;;;;;;5074450;28;20419;-87
2022/11/25 03:46:35;;;;;;;6.23;2.20;;;;;;;;;;5074146;28;20431;-84
2022/11/25 03:49:01;;;;;;;8.93;2.50;;;;;;;;;;5074146;28;20457;-86
2022/11/25 03:51:27;;;;;;;6.50;3.00;;;;;;;;;;5074697;28;20215;-86
2022/11/25 03:53:53;;;;;;;15.67;3.00;;;;;;;;;;5074086;28;20419;-86
2022/11/25 03:56:19;;;;;;;8.60;2.43;;;;;;;;;;5074823;28;20975;-86
2022/11/25 03:58:45;;;;;;;4.90;2.22;;;;;;;;;;5073346;28;20487;-86
2022/11/25 04:01:11;;;;;;;7.43;3.00;;;;;;;;;;5075447;28;20298;-85
2022/11/25 04:03:37;;;;;;;10.13;2.70;;;;;;;;;;5075387;28;20486;-87
2022/11/25 04:06:03;;;;;;;13.47;2.80;;;;;;;;;;5075153;28;20410;-86
2022/11/25 04:08:29;;;;;;;8.68;3.05;;;;;;;;;;5073583;28;20419;-85
2022/11/25 04:10:55;;;;;;;12.82;3.70;;;;;;;;;;5073734;28;20169;-87
2022/11/25 04:13:21;;;;;;;10.95;2.83;;;;;;;;;;5049641;28;20185;-86
2022/11/25 04:15:48;;;;;;;9.93;2.97;;;;;;;;;;5090345;28;20643;-86
2022/11/25 04:18:14;;;;;;;7.15;2.90;;;;;;;;;;5075082;28;20517;-85
2022/11/25 04:20:41;;;;;;;10.60;3.10;;;;;;;;;;5090351;28;20191;-86
2022/11/25 04:23:07;;;;;;;9.35;3.03;;;;;;;;;;5090916;28;20594;-86
2022/11/25 04:25:34;;;;;;;8.82;2.40;;;;;;;;;;5074617;28;20176;-86
2022/11/25 04:28:00;;;;;;;10.15;3.10;;;;;;;;;;5090752;28;20292;-87
2022/11/25 04:30:26;;;;;;;6.57;2.70;;;;;;;;;;5040281;28;20231;-85
2022/11/25 04:32:52;;;;;;;7.83;2.47;;;;;;;;;;5056933;28;20811;-86
2022/11/25 04:35:18;;;;;;;8.03;3.00;;;;;;;;;;5040353;28;20422;-85
2022/11/25 04:37:44;;;;;;;10.73;3.17;;;;;;;;;;5074474;28;20467;-86
2022/11/25 04:40:10;;;;;;;8.67;2.70;;;;;;;;;;5074656;28;20191;-85
2022/11/25 04:42:38;;;;;;;8.23;4.45;;;;;;;;;;5090038;28;20411;-85
2022/11/25 04:45:07;;;;;;;7.95;2.83;;;;;;;;;;5089898;28;20179;-85
2022/11/25 04:47:34;;;;;;;9.05;2.85;;;;;;;;;;5074416;28;20200;-85
2022/11/25 04:50:00;;;;;;;9.88;2.90;;;;;;;;;;5090125;28;20176;-85
2022/11/25 04:52:26;;;;;;;6.70;2.47;;;;;;;;;;5089798;28;20184;-87
2022/11/25 04:54:52;;;;;;;11.20;2.97;;;;;;;;;;5089813;28;20545;-86
2022/11/25 04:57:18;;;;;;;15.38;2.83;;;;;;;;;;5040066;28;20180;-86
2022/11/25 04:59:44;;;;;;;9.10;3.00;;;;;;;;;;5089421;28;20813;-85
2022/11/25 05:02:13;;;;;;;13.63;2.67;;;;;;;;;;5089223;28;20743;-85
2022/11/25 05:04:39;;;;;;;14.75;3.90;;;;;;;;;;5072788;28;20176;-85
2022/11/25 05:07:05;;;;;;;5.50;3.40;;;;;;;;;;5089174;28;20179;-85
2022/11/25 05:09:31;;;;;;;9.50;3.10;;;;;;;;;;5038780;28;20601;-85
2022/11/25 05:11:57;;;;;;;6.33;2.53;;;;;;;;;;5088914;28;20484;-85
2022/11/25 05:14:24;;;;;;;14.47;4.17;;;;;;;;;;5089083;28;20412;-84
2022/11/25 05:16:50;;;;;;;6.93;3.55;;;;;;;;;;5088674;28;20514;-84
2022/11/25 05:19:16;;;;;;;8.07;4.18;;;;;;;;;;5055290;28;20213;-84
2022/11/25 05:21:42;;;;;;;8.27;3.83;;;;;;;;;;5038616;28;20640;-84
2022/11/25 05:24:08;;;;;;;11.43;3.60;;;;;;;;;;5072893;28;20414;-84
2022/11/25 05:26:34;;;;;;;11.88;3.80;;;;;;;;;;5088675;28;20430;-83
2022/11/25 05:29:00;;;;;;;9.83;3.70;;;;;;;;;;5073005;28;20180;-83
2022/11/25 05:31:26;;;;;;;8.23;3.00;;;;;;;;;;5088401;28;20894;-83
2022/11/25 05:33:52;;;;;;;8.90;2.43;;;;;;;;;;5088256;28;20774;-84
2022/11/25 05:36:18;;;;;;;17.30;3.70;;;;;;;;;;5088504;28;20497;-84
2022/11/25 05:38:44;;;;;;;7.25;3.70;;;;;;;;;;5072530;28;20462;-84
2022/11/25 05:41:10;;;;;;;8.37;2.97;;;;;;;;;;5072889;28;20179;-84
2022/11/25 05:43:36;;;;;;;12.00;3.35;;;;;;;;;;5054653;28;20424;-84
2022/11/25 05:46:06;;;;;;;8.68;2.95;;;;;;;;;;5072986;28;20177;-84
2022/11/25 05:48:32;;;;;;;12.88;3.40;;;;;;;;;;5055028;28;20179;-84
2022/11/25 05:51:01;;;;;;;11.43;3.73;;;;;;;;;;5088764;28;20176;-85
2022/11/25 05:53:27;;;;;;;8.18;3.22;;;;;;;;;;5073203;28;20759;-84
2022/11/25 05:55:59;;;;;;;6.85;2.55;;;;;;;;;;5055032;28;20176;-84
2022/11/25 05:58:25;;;;;;;6.78;2.50;;;;;;;;;;5073374;28;20216;-84
2022/11/25 06:00:51;;;;;;;8.20;3.07;;;;;;;;;;5050719;28;1091615;-84
2022/11/25 06:03:17;;;;;;;5.63;2.42;;;;;;;;;;5074038;28;20173;-84
2022/11/25 06:05:43;;;;;;;6.78;2.60;;;;;;;;;;5055838;28;20199;-84
2022/11/25 06:08:10;;;;;;;8.27;3.00;;;;;;;;;;5061634;28;20185;-83
2022/11/25 06:10:39;;;;;;;12.10;3.40;;;;;;;;;;5036005;28;20201;-84
2022/11/25 06:13:06;;;;;;;6.70;2.60;;;;;;;;;;5035927;28;20530;-84
2022/11/25 06:15:32;;;;;;;14.50;3.70;;;;;;;;;;5036513;28;20642;-84
2022/11/25 06:17:58;;;;;;;12.30;2.50;;;;;;;;;;5039855;28;20249;-84
2022/11/25 06:20:24;;;;;;;4.60;2.23;;;;;;;;;;5057516;28;20487;-84
2022/11/25 06:22:50;;;;;;;7.57;2.58;;;;;;;;;;5057356;28;20519;-84
2022/11/25 06:25:16;;;;;;;6.80;2.10;;;;;;;;;;5040294;28;20219;-85
2022/11/25 06:27:42;;;;;;;8.32;2.70;;;;;;;;;;5039761;28;20404;-85
2022/11/25 06:30:08;;;;;;;7.87;2.60;;;;;;;;;;5039775;28;20192;-85
2022/11/25 06:32:34;;;;;;;5.22;2.97;;;;;;;;;;5056939;28;20457;-86
2022/11/25 06:35:00;;;;;;;8.87;2.70;;;;;;;;;;5057595;28;20181;-85
2022/11/25 06:37:26;;;;;;;7.68;2.60;;;;;;;;;;5023172;28;20422;-84
2022/11/25 06:39:52;;;;;;;8.50;2.90;;;;;;;;;;5039419;28;20178;-84
2022/11/25 06:42:18;;;;;;;7.20;2.40;;;;;;;;;;5023568;28;20412;-84
2022/11/25 06:44:44;;;;;;;5.93;2.50;;;;;;;;;;5023690;28;20804;-84
2022/11/25 06:47:10;;;;;;;7.33;2.70;;;;;;;;;;5057508;28;20178;-84
2022/11/25 06:49:36;;;;;;;9.77;2.40;;;;;;;;;;5039348;28;20775;-84
2022/11/25 06:52:02;;;;;;;9.60;3.47;;;;;;;;;;5039992;28;20404;-84
2022/11/25 06:54:28;;;;;;;5.25;3.13;;;;;;;;;;5023177;28;20424;-85
2022/11/25 06:56:54;;;;;;;8.45;4.13;;;;;;;;;;5039668;28;20234;-84
2022/11/25 06:59:20;;;;;;;10.83;4.67;;;;;;;;;;5038993;28;20252;-85
2022/11/25 07:01:46;;;;;;;8.63;3.35;;;;;;;;;;5053250;28;20403;-85
2022/11/25 07:04:12;;;;;;;8.52;2.55;;;;;;;;;;5043038;28;20383;-84
2022/11/25 07:06:38;;;;;;;6.38;2.40;;;;;;;;;;5077192;28;20614;-84
2022/11/25 07:09:04;;;;;;;6.77;2.80;;;;;;;;;;5093023;28;20198;-84
2022/11/25 07:11:32;;;;;;;4.85;2.30;;;;;;;;;;5059528;28;20479;-83
2022/11/25 07:14:03;;;;;;;5.85;2.30;;;;;;;;;;5092864;28;20199;-84
2022/11/25 07:16:31;;;;;;;5.60;2.60;;;;;;;;;;5093011;28;20173;-84
2022/11/25 07:19:00;;;;;;;9.95;3.80;;;;;;;;;;5092587;28;20716;-84
2022/11/25 07:21:26;;;;;;;4.85;2.80;;;;;;;;;;5092845;28;20181;-84
2022/11/25 07:23:52;;;;;;;10.30;3.73;;;;;;;;;;5042472;28;20179;-84
2022/11/25 07:26:20;;;;;;;10.45;3.55;;;;;;;;;;5091871;28;20560;-83
2022/11/25 07:28:47;;;;;;;11.88;3.97;;;;;;;;;;5076746;28;20677;-84
2022/11/25 07:31:17;;;;;;;6.65;3.00;;;;;;;;;;5076515;28;20282;-84
2022/11/25 07:33:43;;;;;;;7.53;3.08;;;;;;;;;;5091885;28;20168;-85
2022/11/25 07:36:11;;;;;;;7.13;3.55;;;;;;;;;;5092343;28;20188;-84
2022/11/25 07:38:37;;;;;;;7.35;3.92;;;;;;;;;;5076397;28;20211;-85
2022/11/25 07:41:05;;;;;;;6.47;3.22;;;;;;;;;;5042033;28;20180;-82
2022/11/25 07:43:31;;;;;;;12.55;3.60;;;;;;;;;;5077060;28;20174;-84
2022/11/25 07:46:08;;;;;;;9.63;3.88;;;;;;;;;;5091818;28;20663;-85
2022/11/25 07:48:34;;;;;;;6.07;2.88;;;;;;;;;;5076792;28;20169;-85
2022/11/25 07:51:00;;;;;;;6.50;3.30;;;;;;;;;;5091932;28;20183;-85
2022/11/25 07:53:26;;;;;;;3.10;2.23;;;;;;;;;;5042106;28;20411;-85
2022/11/25 07:55:52;;;;;;;4.97;2.97;;;;;;;;;;5041361;28;20451;-86
2022/11/25 07:58:18;;;;;;;5.70;3.00;;;;;;;;;;5058337;28;21072;-85
2022/11/25 08:00:44;;;;;;;5.82;3.00;;;;;;;;;;5058265;28;20856;-85
2022/11/25 08:03:09;;;;;;;7.00;2.80;;;;;;;;;;5076201;28;20185;-85
2022/11/25 08:05:35;;;;;;;9.53;3.00;;;;;;;;;;5041561;28;20184;-86
2022/11/25 08:08:01;;;;;;;8.23;4.20;;;;;;;;;;5091437;28;20484;-85
2022/11/25 08:10:27;;;;;;;7.80;3.45;;;;;;;;;;5091401;28;20415;-85
2022/11/25 08:12:53;;;;;;;7.70;4.43;;;;;;;;;;5057944;28;20175;-85
2022/11/25 08:15:19;;;;;;;9.10;3.63;;;;;;;;;;5057890;28;20169;-85
2022/11/25 08:17:45;;;;;;;4.50;3.57;;;;;;;;;;5075533;28;20459;-85
2022/11/25 08:20:11;;;;;;;7.18;3.85;;;;;;;;;;5075667;28;20396;-85
2022/11/25 08:22:37;;;;;;;8.00;2.97;;;;;;;;;;5075715;28;20314;-88
2022/11/25 08:25:04;;;;;;;6.70;3.40;;;;;;;;;;5075694;28;20648;-85
2022/11/25 08:27:30;;;;;;;5.25;2.28;;;;;;;;;;5075589;28;20918;-85
2022/11/25 08:29:55;;;;;;;2.40;2.10;;;;;;;;;;5075517;28;20177;-85
2022/11/25 08:32:21;;;;;;;4.03;2.50;;;;;;;;;;5075397;28;20494;-85
2022/11/25 08:34:47;;;;;;;3.90;2.43;;;;;;;;;;5075460;28;20759;-85
2022/11/25 08:37:13;;;;;;;5.20;2.20;;;;;;;;;;5091061;28;20422;-85
2022/11/25 08:39:39;;;;;;;5.40;2.10;;;;;;;;;;5074489;28;20424;-86
2022/11/25 08:42:05;;;;;;;5.83;2.00;;;;;;;;;;5090710;28;20464;-85
2022/11/25 08:44:31;;;;;;;3.38;1.55;;;;;;;;;;5057759;28;20829;-84
2022/11/25 08:46:57;;;;;;;3.35;1.67;;;;;;;;;;5057354;28;20200;-84
2022/11/25 08:49:25;;;;;;;4.80;2.20;;;;;;;;;;5057452;28;20223;-84
2022/11/25 08:51:52;;;;;;;5.30;1.50;;;;;;;;;;5075062;28;20192;-85
2022/11/25 08:54:18;;;;;;;4.32;2.00;;;;;;;;;;5090604;28;20183;-84
2022/11/25 08:56:44;;;;;;;6.00;1.83;;;;;;;;;;5089944;28;20181;-85
2022/11/25 08:59:10;;;;;;;2.90;1.90;;;;;;;;;;5039978;28;20478;-85
2022/11/25 09:01:36;;;;;;;6.63;1.85;;;;;;;;;;5074791;28;20160;-84
2022/11/25 09:04:02;;;;;;;4.33;2.00;;;;;;;;;;5057183;28;20184;-84
2022/11/25 09:06:28;;;;;;;2.67;1.63;;;;;;;;;;5074913;28;20872;-84
2022/11/25 09:08:56;;;;;;;3.17;1.65;;;;;;;;;;5090256;28;20423;-84
2022/11/25 09:11:22;;;;;;;5.82;2.58;;;;;;;;;;5090482;28;20169;-85
2022/11/25 09:13:48;;;;;;;7.85;2.67;;;;;;;;;;5090266;28;20211;-84
2022/11/25 09:16:14;;;;;;;4.80;2.47;;;;;;;;;;5074152;28;20173;-85
2022/11/25 09:18:40;;;;;;;6.43;1.85;;;;;;;;;;5090339;28;20459;-85
2022/11/25 09:21:10;;;;;;;6.50;2.37;;;;;;;;;;5056942;28;20177;-85
2022/11/25 09:23:37;;;;;;;6.43;2.25;;;;;;;;;;5091719;28;20985;-85
2022/11/25 09:26:04;;;;;;;6.45;2.88;;;;;;;;;;5077058;28;20174;-85
2022/11/25 09:28:30;;;;;;;7.28;2.60;;;;;;;;;;5090554;28;20520;-85
2022/11/25 09:30:56;;;;;;;3.80;2.55;;;;;;;;;;5074221;28;20271;-85
2022/11/25 09:33:22;;;;;;;11.80;2.13;;;;;;;;;;5089682;28;20655;-85
2022/11/25 09:35:49;;;;;;;7.40;2.17;;;;;;;;;;5056734;28;20448;-85
2022/11/25 09:38:15;;;;;;;4.55;2.00;;;;;;;;;;5074218;28;20728;-84
2022/11/25 09:40:41;;;;;;;5.70;2.55;;;;;;;;;;5074226;28;20180;-86
2022/11/25 09:46:44;;;;;;;9.60;2.40;;;;;;;;;;5071537;28;20422;-85
2022/11/25 09:49:29;;;;;;;7.70;2.38;;;;;;;;;;5089510;28;20230;-85
2022/11/25 09:51:55;;;;;;;10.48;2.58;;;;;;;;;;5089565;28;20234;-85
2022/11/25 09:54:22;;;;;;;6.77;1.80;;;;;;;;;;5089383;28;20633;-85
2022/11/25 09:56:52;;;;;;;16.65;3.05;;;;;;;;;;5073682;28;20402;-86
2022/11/25 09:59:18;;;;;;;9.60;2.30;;;;;;;;;;5089416;28;20314;-86
2022/11/25 10:01:50;;;;;;;6.67;3.07;;;;;;;;;;5089589;28;20592;-87
2022/11/25 10:04:19;;;;;;;14.20;2.20;;;;;;;;;;5073917;28;20759;-85
2022/11/25 10:06:48;;;;;;;7.20;1.90;;;;;;;;;;5073431;28;20176;-86
2022/11/25 10:09:15;;;;;;;4.80;1.93;;;;;;;;;;5088950;28;20414;-86
2022/11/25 10:11:49;;;;;;;6.77;1.90;;;;;;;;;;5089215;28;20464;-86
2022/11/25 10:14:15;;;;;;;8.03;2.30;;;;;;;;;;5074052;28;20483;-86
2022/11/25 10:16:52;;;;;;;7.40;1.53;;;;;;;;;;5089478;28;20857;-86
2022/11/25 10:19:32;;;;;;;4.67;2.70;;;;;;;;;;5089252;28;20558;-86
2022/11/25 10:21:59;;;;;;;7.50;1.93;;;;;;;;;;5089131;28;20419;-86
2022/11/25 10:24:25;;;;;;;6.53;1.83;;;;;;;;;;5073625;28;20403;-86
2022/11/25 10:26:57;;;;;;;4.70;1.63;;;;;;;;;;5089071;28;20472;-86
2022/11/25 10:29:37;;;;;;;10.60;2.40;;;;;;;;;;5073229;28;20415;-86
2022/11/25 10:32:29;;;;;;;5.73;1.70;;;;;;;;;;5088701;28;20426;-85
2022/11/25 10:35:00;;;;;;;6.80;2.70;;;;;;;;;;5070446;28;20430;-86
2022/11/25 10:37:32;;;;;;;5.90;1.90;;;;;;;;;;5073457;28;20807;-86
2022/11/25 10:39:58;;;;;;;7.40;2.57;;;;;;;;;;5089222;28;20419;-86
2022/11/25 10:42:27;;;;;;;9.20;2.13;;;;;;;;;;5073628;28;20403;-86
2022/11/25 10:44:56;;;;;;;10.03;2.53;;;;;;;;;;5073334;28;20395;-87
2022/11/25 10:47:28;;;;;;;9.90;2.00;;;;;;;;;;5089480;28;20414;-86
2022/11/25 10:50:07;;;;;;;13.33;2.40;;;;;;;;;;5073358;28;20407;-87
2022/11/25 10:52:37;;;;;;;10.40;2.57;;;;;;;;;;5073596;28;20450;-87
2022/11/25 10:55:14;;;;;;;7.60;2.87;;;;;;;;;;5088754;28;20469;-87
2022/11/25 10:57:41;;;;;;;12.13;2.90;;;;;;;;;;5073043;28;20468;-87
2022/11/25 11:00:08;;;;;;;8.00;2.33;;;;;;;;;;5087890;28;20545;-86
2022/11/25 11:02:34;;;;;;;6.33;3.23;;;;;;;;;;5075689;28;20402;-87
2022/11/25 11:04:59;;;;;;;12.17;3.13;;;;;;;;;;5091973;28;20958;-88
2022/11/25 11:07:27;;;;;;;7.13;2.20;;;;;;;;;;5076800;28;20894;-87
2022/11/25 11:09:53;;;;;;;9.93;2.63;;;;;;;;;;5074833;28;20399;-87
2022/11/25 11:12:24;;;;;;;9.27;2.17;;;;;;;;;;5071697;28;20403;-88
2022/11/25 11:14:50;;;;;;;15.07;2.90;;;;;;;;;;5072463;28;20400;-87
2022/11/25 11:17:30;;;;;;;8.53;2.20;;;;;;;;;;5076410;28;20400;-86
2022/11/25 11:20:00;;;;;;;9.13;2.40;;;;;;;;;;5076717;28;20429;-89
2022/11/25 11:22:26;;;;;;;14.73;3.37;;;;;;;;;;5076901;28;20403;-89
2022/11/25 11:25:04;;;;;;;10.20;2.73;;;;;;;;;;5041810;28;20480;-89
2022/11/25 11:27:35;;;;;;;20.83;3.37;;;;;;;;;;5092187;28;20801;-88
2022/11/25 11:30:08;;;;;;;13.67;3.00;;;;;;;;;;5076209;28;20415;-89
2022/11/25 11:32:34;;;;;;;21.03;3.47;;;;;;;;;;5092339;28;20415;-89
2022/11/25 11:35:04;;;;;;;22.58;4.70;;;;;;;;;;5041769;28;20423;-89
2022/11/25 11:37:30;;;;;;;12.65;3.40;;;;;;;;;;5091787;28;20176;-89
2022/11/25 11:40:02;;;;;;;10.50;2.57;;;;;;;;;;5091850;28;20614;-89
2022/11/25 11:43:03;;;;;;;11.70;2.83;;;;;;;;;;5092109;28;20415;-89
2022/11/25 11:45:50;;;;;;;18.10;3.63;;;;;;;;;;5014161;28;20421;-88
2022/11/25 11:48:27;;;;;;;18.13;3.72;;;;;;;;;;5034437;28;20437;-89
2022/11/25 11:51:00;;;;;;;12.93;2.60;;;;;;;;;;5091442;28;20245;-90
2022/11/25 11:53:36;;;;;;;10.82;2.50;;;;;;;;;;5076102;28;20169;-89
2022/11/25 11:56:07;;;;;;;10.80;3.67;;;;;;;;;;5091118;28;20498;-88
2022/11/25 11:58:51;;;;;;;16.70;3.42;;;;;;;;;;5074982;28;20213;-89
2022/11/25 12:01:22;;;;;;;8.95;3.22;;;;;;;;;;5075029;28;20706;-89
2022/11/25 12:04:07;;;;;;;23.17;4.38;;;;;;;;;;5075489;28;20180;-89
2022/11/25 12:06:36;;;;;;;12.05;2.90;;;;;;;;;;5075227;28;20196;-89
2022/11/25 12:09:04;;;;;;;18.07;3.20;;;;;;;;;;5075128;28;20522;-89
2022/11/25 12:11:33;;;;;;;10.13;2.93;;;;;;;;;;5075373;28;20404;-89
2022/11/25 12:14:02;;;;;;;10.23;3.15;;;;;;;;;;5089321;28;20422;-89
2022/11/25 12:16:33;;;;;;;12.77;3.10;;;;;;;;;;5074961;28;20206;-89
2022/11/25 12:19:07;;;;;;;9.48;2.60;;;;;;;;;;5074668;28;20490;-89
2022/11/25 12:21:49;;;;;;;9.57;2.17;;;;;;;;;;5075046;28;20167;-89
2022/11/25 12:24:22;;;;;;;10.52;3.22;;;;;;;;;;5090437;28;20214;-88
2022/11/25 12:26:51;;;;;;;12.45;2.90;;;;;;;;;;5075184;28;20164;-89
2022/11/25 12:29:32;;;;;;;15.75;2.97;;;;;;;;;;5074364;28;20180;-90
2022/11/25 12:32:03;;;;;;;16.25;3.25;;;;;;;;;;5090543;28;20193;-89
2022/11/25 12:34:39;;;;;;;18.08;5.35;;;;;;;;;;5074813;28;20589;-88
2022/11/25 12:37:11;;;;;;;10.77;2.67;;;;;;;;;;5074856;28;20256;-85
2022/11/25 12:39:50;;;;;;;9.60;2.50;;;;;;;;;;5088943;28;20577;-84
2022/11/25 12:42:20;;;;;;;11.07;3.10;;;;;;;;;;5073589;28;20176;-84
2022/11/25 12:44:51;;;;;;;14.18;2.72;;;;;;;;;;5073749;28;20161;-84
2022/11/25 12:47:18;;;;;;;10.25;3.42;;;;;;;;;;5089985;28;20570;-85
2022/11/25 12:49:45;;;;;;;10.50;2.63;;;;;;;;;;5074744;28;20168;-82
2022/11/25 12:52:31;;;;;;;9.73;2.40;;;;;;;;;;5074289;28;20169;-82
2022/11/25 12:55:00;;;;;;;9.55;2.00;;;;;;;;;;5074440;28;20255;-82
2022/11/25 12:57:32;;;;;;;9.77;2.73;;;;;;;;;;5074362;28;20169;-82
2022/11/25 13:00:16;;;;;;;14.98;2.25;;;;;;;;;;5073794;28;20887;-82
2022/11/25 13:02:50;;;;;;;8.35;2.65;;;;;;;;;;5074119;28;20173;-83
2022/11/25 13:05:30;;;;;;;8.73;2.30;;;;;;;;;;5073942;28;20161;-82
2022/11/25 13:08:08;;;;;;;7.60;2.33;;;;;;;;;;5074000;28;20282;-82
2022/11/25 13:10:40;;;;;;;13.50;3.08;;;;;;;;;;5089551;28;20177;-80
2022/11/25 13:13:06;;;;;;;12.43;3.33;;;;;;;;;;5065576;28;20177;-80
2022/11/25 13:15:36;;;;;;;6.23;2.50;;;;;;;;;;5060158;28;20591;-83
2022/11/25 13:18:07;;;;;;;7.80;2.80;;;;;;;;;;5053938;28;20802;-82
2022/11/25 13:20:35;;;;;;;8.85;2.08;;;;;;;;;;5043867;28;20227;-82
2022/11/25 13:23:06;;;;;;;12.00;2.15;;;;;;;;;;5035897;28;20180;-82
2022/11/25 13:25:32;;;;;;;13.10;2.60;;;;;;;;;;5035437;28;20196;-82
2022/11/25 13:28:00;;;;;;;13.35;2.75;;;;;;;;;;5053517;28;20185;-82
2022/11/25 13:30:32;;;;;;;6.60;2.30;;;;;;;;;;5019718;28;20181;-82
2022/11/25 13:33:13;;;;;;;14.82;3.20;;;;;;;;;;5035563;28;20445;-82
2022/11/25 13:35:42;;;;;;;11.30;2.58;;;;;;;;;;5054179;28;20177;-82
2022/11/25 13:38:28;;;;;;;21.83;6.80;;;;;;;;;;5053110;28;20208;-82
2022/11/25 13:40:58;;;;;;;14.23;3.20;;;;;;;;;;5054071;28;20172;-82
2022/11/25 13:43:24;;;;;;;17.00;2.70;;;;;;;;;;5035705;28;20180;-82
2022/11/25 13:45:50;;;;;;;15.70;4.22;;;;;;;;;;5018736;28;20416;-81
2022/11/25 13:48:20;;;;;;;10.53;2.80;;;;;;;;;;5035490;28;20645;-82
2022/11/25 13:50:48;;;;;;;15.23;3.30;;;;;;;;;;5053292;28;20754;-82
2022/11/25 13:53:25;;;;;;;7.23;2.60;;;;;;;;;;5052974;28;20180;-81
2022/11/25 13:55:53;;;;;;;13.73;4.07;;;;;;;;;;5039228;28;20427;-81
2022/11/25 13:58:19;;;;;;;18.07;3.57;;;;;;;;;;5072970;28;20490;-80
2022/11/25 14:00:50;;;;;;;10.60;5.03;;;;;;;;;;5072810;28;20814;-82
2022/11/25 14:03:19;;;;;;;12.23;5.50;;;;;;;;;;5054391;28;20422;-82
2022/11/25 14:06:04;;;;;;;12.30;3.60;;;;;;;;;;5054952;28;20434;-81
2022/11/25 14:08:37;;;;;;;13.30;2.40;;;;;;;;;;5054456;28;20415;-82
2022/11/25 14:11:09;;;;;;;6.63;2.50;;;;;;;;;;5072640;28;20485;-82
2022/11/25 14:13:50;;;;;;;12.20;4.30;;;;;;;;;;5055062;28;20418;-82
2022/11/25 14:16:25;;;;;;;10.47;4.17;;;;;;;;;;5057931;28;20891;-81
2022/11/25 14:18:57;;;;;;;7.20;2.83;;;;;;;;;;5034502;28;20558;-82
2022/11/25 14:21:32;;;;;;;8.13;2.05;;;;;;;;;;5034251;28;20446;-82
2022/11/25 14:24:10;;;;;;;13.13;2.50;;;;;;;;;;5034729;28;20326;-82
2022/11/25 14:26:39;;;;;;;7.20;2.55;;;;;;;;;;5035451;28;20496;-82
2022/11/25 14:29:12;;;;;;;15.05;2.97;;;;;;;;;;5034815;28;20315;-82
2022/11/25 14:31:44;;;;;;;10.68;2.55;;;;;;;;;;5033840;28;20181;-82
2022/11/25 14:34:10;;;;;;;12.02;3.67;;;;;;;;;;5034120;28;20315;-82
2022/11/25 14:36:40;;;;;;;7.57;2.43;;;;;;;;;;5035894;28;20228;-82
2022/11/25 14:39:16;;;;;;;5.25;1.95;;;;;;;;;;5038241;28;20467;-84
2022/11/25 14:41:47;;;;;;;11.07;2.10;;;;;;;;;;5038418;28;20183;-81
2022/11/25 14:44:16;;;;;;;8.20;3.10;;;;;;;;;;5056258;28;20166;-81
2022/11/25 14:46:55;;;;;;;7.07;2.17;;;;;;;;;;5038433;28;20515;-81
2022/11/25 14:49:21;;;;;;;12.43;1.90;;;;;;;;;;5037890;28;20208;-81
2022/11/25 14:51:49;;;;;;;10.43;2.50;;;;;;;;;;5038548;28;20412;-82
2022/11/25 14:54:15;;;;;;;7.35;2.25;;;;;;;;;;5056206;28;20215;-82
2022/11/25 14:56:42;;;;;;;10.33;2.43;;;;;;;;;;5055856;28;20197;-82